Terminal Aerodrome Forecast
Issued by NWS

Home | Current Version | Previous Version | Text Only | Print | Product List | Glossary On
Versions: 1 2 3 4 5 6 7 8 9 10 11 12 13 14 15 16 17 18 19 20 21 22 23 24 25 26 27 28 29 30 31 32
422
FTUS46 KLOX 272026 AAA
TAFOXR
TAF AMD
KOXR 272026Z 2720/2818 25007KT P6SM SKC
     FM272200 27011KT P6SM SCT008
     FM280500 VRB03KT P6SM SCT005
     FM280900 VRB03KT 5SM BR BKN005
     FM281100 VRB03KT 2SM BR OVC003
     FM281500 VRB04KT 5SM BR BKN006
     FM281700 28005KT P6SM FEW005=

USA.gov is the U.S. government's official web portal to all federal, state and local government web resources and services.